Share

Albert, OK

6:18 PM CDT on April 23, 2014 (GMT -0500)
Peck's country (KOKANADA2) Elev 1255 ft | 35.10 °N, 98.32 °W | Change Station
Active Advisory: Severe Thunderstorm Watch

Current weather conditions updated 8 minutes ago

Clear
Clear
81.9 °F
Feels Like 82 °F
N
14.0
Wind Variable Wind from SE
Gusts 27.0 mph
Sunrise 6:51 AM
Sunset 8:13 PM
Moon Waning Crescent

Tomorrow is forecast to be Much Cooler than today.

Pressure 29.66 in
Visibility 10.0 miles
Clouds Clear
Heat Index 82 °F
Dew Point 58 °F
Humidity 45%
Rainfall 0.00 in
Snow Depth Not available.
UV 3 out of 16
Pollen 9.90 out of 12
Air Quality Not available.
Flu Activity Regional
METAR KOJA 232255Z AUTO 15015G24KT 10SM CLR 26/14 A2966 RMK AO2 LTG DSNT SW THRU N

More Conditions Fewer Conditions

Pressure 29.66 in
Visibility 10.0 miles
Clouds Clear
Heat Index 82 °F
Dew Point 58 °F
Humidity 45%
Rainfall 0.00 in
Snow Depth Not available.
UV 3 out of 16
Pollen 9.90 out of 12
Air Quality Not available.
Flu Activity Regional
METAR KOJA 232255Z AUTO 15015G24KT 10SM CLR 26/14 A2966 RMK AO2 LTG DSNT SW THRU N

More Conditions Fewer Conditions

10-Day Weather Forecast

Almanac

Astronomy

Apr. 23, 2014 Rise Set
Actual Time 6:51 AM CDT 8:13 PM CDT
Civil Twilight 6:24 AM CDT 8:39 PM CDT
Nautical Twilight 5:53 AM CDT 9:11 PM CDT
Astronomical Twilight 5:19 AM CDT 9:44 PM CDT
Moon 3:10 AM CDT 2:35 PM CDT
Length of Visible Light 14h 14m
Length of Day
13h 21m
Tomorrow will be 2m 1s longer.
Waning Crescent, 32% of the Moon is Illuminated
Today
Waning Crescent
Apr 29
New
May 6
First Quarter
May 14
Full
May 21
Last Quarter

Today's Extremes

State Highs State Lows

Community

  • Nestled In
    Nestled In
  • Stunning Sunrise
    Stunning Sunrise
  • spring flowers
    spring flowers
  • Earth Day Spectrum Ove' Blue
    Earth Day Spectrum Ove' Blue
  • BARN B&W
    BARN B&W

WunderPhotos

Upload Photos

1,704,454 photos uploaded!

WunderBlogs® & News

Nearby

Snow Depth

Station Depth Elevation
No new snow has been reported.

Coastal Water Temperatures

Place Temperature
No Stations Reporting

Earthquake Activity

City Distance Mag. Time & Date
Stillwater, Oklahoma 95 miles 2.8 5:30 PM CDT
2014-04-19
Enid, Oklahoma 99 miles 2.9 1:11 PM CDT
2014-04-19
Perry, Oklahoma 96 miles 4.0 5:43 AM CDT
2014-04-19
Stillwater, Oklahoma 96 miles 2.7 3:40 AM CDT
2014-04-19
Minimum magnitude displayed is 2.5.

Nearby Weather Stations

Station Location Temp. Heat Index Dew Point Humidity Wind Precip. Elev Updated Type
Peck's country, Anadarko, OK 81.9 °F 82 °F 58 °F 45% SE  at  14.0 mph 0.00 in / hr 1255 ft 6:10 PM CDT Normal
Carnegie, Carnegie, OK 80.8 °F 80 °F 48 °F 32% SE  at  22.8 mph 0.00 in / hr 1358 ft 6:18 PM CDT Rapid Fire

Show More Stations Show Fewer Stations

What do you think?

We're not finished. Please let us know what you like, what you don't like, and what you are still missing.